LWSK/SKP METAR and TAF weather

Enter ICAO airport designator
Station Type Date Time Source
LWSK METAR 2020/04/06 11:00 UTC NOAA

LWSK 061100Z 04008KT 350V060 CAVOK 16/M04 Q1027 NOSIG


Station Type Date Time Source
LWSK Decoded METAR 2020/04/06 11:00 UTC NOAA

Skopje-Petrovec, Macedonia, The Republic of (LWSK) 41-58N 021-39E 239M
Apr 06, 2020 - 07:00 AM EDT / 2020.04.06 1100 UTC
Wind: from the NE (040 degrees) at 9 MPH (8 KT) (direction variable):0
Visibility: greater than 7 mile(s):0
Temperature: 60 F (16 C)
Dew Point: 24 F (-4 C)
Relative Humidity: 25%
Pressure (altimeter): 30.33 in. Hg (1027 hPa)
ob: LWSK 061100Z 04008KT 350V060 CAVOK 16/M04 Q1027 NOSIG
cycle: 11

Station Type Date Time Source
LWSK TAF 2020/04/06 09:39 UTC NOAA

TAF LWSK 060830Z 0609/0709 34008KT 9999 FEW050 BKN100
TEMPO 0609/0619 02018KT
BECMG 0621/0623 CAVOK

Example: see airport list